createdAt,value
2019-01-28T00:01:03.945Z,95182.17
2019-01-28T00:03:36.273Z,95181.80
2019-01-28T00:06:07.122Z,95187.77
2019-01-28T00:08:37.864Z,95182.00
2019-01-28T00:11:10.945Z,95191.19
2019-01-28T00:13:42.982Z,95191.20
2019-01-28T00:16:15.291Z,95192.95
2019-01-28T00:18:47.259Z,95190.31
2019-01-28T00:21:18.027Z,95197.78
2019-01-28T00:23:50.275Z,95199.70
2019-01-28T00:26:20.767Z,95198.59
2019-01-28T00:28:53.129Z,95205.44
2019-01-28T00:32:51.809Z,95210.12
2019-01-28T00:35:24.118Z,95210.12
2019-01-28T00:37:54.872Z,95207.27
2019-01-28T00:40:26.958Z,95211.64
2019-01-28T00:42:59.781Z,95211.38
2019-01-28T00:45:31.945Z,95215.72
2019-01-28T00:48:04.163Z,95213.89
2019-01-28T00:50:36.322Z,95214.66
2019-01-28T00:53:08.424Z,95221.89
2019-01-28T00:55:40.693Z,95227.67
2019-01-28T00:58:12.802Z,95225.44
2019-01-28T01:00:44.945Z,95226.33
2019-01-28T01:03:17.151Z,95237.39
2019-01-28T01:05:49.420Z,95240.05
2019-01-28T01:08:21.391Z,95249.18
2019-01-28T01:10:53.446Z,95259.55
2019-01-28T01:13:25.661Z,95260.00
2019-01-28T01:15:57.955Z,95260.00
2019-01-28T01:18:30.326Z,95275.84
2019-01-28T01:21:02.290Z,95282.69
2019-01-28T01:23:33.080Z,95289.27
2019-01-28T01:26:03.801Z,95289.11
2019-01-28T01:28:35.974Z,95291.95
2019-01-28T01:31:08.140Z,95307.46
2019-01-28T01:33:40.294Z,95316.39
2019-01-28T01:36:10.877Z,95315.64
2019-01-28T01:38:42.956Z,95328.20
2019-01-28T01:41:15.060Z,95335.19
2019-01-28T01:43:47.298Z,95337.75
2019-01-28T01:46:19.397Z,95337.29
2019-01-28T01:48:51.689Z,95350.05
2019-01-28T01:51:23.987Z,95350.05
2019-01-28T01:53:56.291Z,95347.52
2019-01-28T01:56:28.322Z,95348.95
2019-01-28T01:59:00.391Z,95351.39
2019-01-28T02:01:32.718Z,95358.30
2019-01-28T02:04:05.136Z,95358.30
2019-01-28T02:06:37.474Z,95359.21
2019-01-28T02:09:11.369Z,95358.98
2019-01-28T02:11:43.798Z,95369.27
2019-01-28T02:14:15.953Z,95369.27
2019-01-28T02:16:47.957Z,95374.58
2019-01-28T02:19:20.278Z,95380.02
2019-01-28T02:21:50.877Z,95389.55
2019-01-28T02:24:23.131Z,95392.02
2019-01-28T02:26:53.823Z,95398.52
2019-01-28T02:29:25.957Z,95400.62
2019-01-28T02:31:58.083Z,95400.62
2019-01-28T02:34:30.293Z,95403.27
2019-01-28T02:37:02.431Z,95400.84
2019-01-28T02:39:34.362Z,95406.67
2019-01-28T02:42:05.286Z,95406.67
2019-01-28T02:44:35.875Z,95410.21
2019-01-28T02:47:08.076Z,95423.77
2019-01-28T02:49:40.130Z,95425.03
2019-01-28T02:52:12.138Z,95419.18
2019-01-28T02:54:44.274Z,95428.05
2019-01-28T02:57:14.874Z,95439.25
2019-01-28T02:59:47.273Z,95452.70
2019-01-28T03:02:17.894Z,95451.00
2019-01-28T03:04:50.129Z,95449.50
2019-01-28T03:07:22.305Z,95448.74
2019-01-28T03:09:54.647Z,95451.98
2019-01-28T03:12:26.743Z,95460.16
2019-01-28T03:14:58.900Z,95460.02
2019-01-28T03:17:30.930Z,95467.91
2019-01-28T03:20:02.955Z,95474.36
2019-01-28T03:22:34.960Z,95473.75
2019-01-28T03:25:08.339Z,95480.45
2019-01-28T03:27:40.519Z,95477.02
2019-01-28T03:30:19.316Z,95477.02
2019-01-28T03:32:51.623Z,95488.06
2019-01-28T03:35:23.697Z,95492.48
2019-01-28T03:37:55.956Z,95487.77
2019-01-28T03:40:27.953Z,95495.13
2019-01-28T03:42:59.948Z,95491.41
2019-01-28T03:45:31.951Z,95492.78
2019-01-28T03:48:03.956Z,95496.36
2019-01-28T03:50:35.951Z,95501.13
2019-01-28T03:53:08.097Z,95503.07
2019-01-28T03:55:40.028Z,95509.91
2019-01-28T03:58:12.141Z,95504.30
2019-01-28T04:00:44.089Z,95510.62
2019-01-28T04:03:16.287Z,95514.72
2019-01-28T04:05:46.867Z,95510.00
2019-01-28T04:08:18.958Z,95518.22
2019-01-28T04:10:50.961Z,95510.05
2019-01-28T04:13:23.287Z,95508.39
2019-01-28T04:15:53.860Z,95511.47
2019-01-28T04:18:25.971Z,95511.47
2019-01-28T04:20:58.104Z,95512.89
2019-01-28T04:23:30.132Z,95515.19
2019-01-28T04:26:00.878Z,95514.44
2019-01-28T04:28:32.956Z,95514.07
2019-01-28T04:31:04.941Z,95519.69
2019-01-28T04:33:36.946Z,95518.49
2019-01-28T04:36:08.948Z,95518.78
2019-01-28T04:38:40.953Z,95521.35
2019-01-28T04:41:12.949Z,95526.64
2019-01-28T04:43:44.974Z,95523.62
2019-01-28T04:46:16.943Z,95519.90
2019-01-28T04:48:48.940Z,95525.37
2019-01-28T04:51:20.954Z,95525.22
2019-01-28T04:53:52.958Z,95518.36
2019-01-28T04:56:24.952Z,95500.73
2019-01-28T04:58:57.133Z,95506.06
2019-01-28T05:01:29.283Z,95516.03
2019-01-28T05:03:59.843Z,95514.66
2019-01-28T05:06:31.955Z,95517.00
2019-01-28T05:09:04.294Z,95511.93
2019-01-28T05:11:34.717Z,95506.20
2019-01-28T05:14:06.881Z,95499.56
2019-01-28T05:16:39.151Z,95509.88
2019-01-28T05:19:09.870Z,95499.62
2019-01-28T05:21:41.940Z,95499.62
2019-01-28T05:24:13.951Z,95501.82
2019-01-28T05:26:46.087Z,95501.96
2019-01-28T05:29:18.140Z,95507.28
2019-01-28T05:31:50.074Z,95509.80
2019-01-28T05:34:22.256Z,95509.80
2019-01-28T05:36:52.880Z,95501.39
2019-01-28T05:39:24.970Z,95502.35
2019-01-28T05:41:57.121Z,95500.09
2019-01-28T05:44:27.792Z,95493.26
2019-01-28T05:46:59.968Z,95499.55
2019-01-28T05:49:31.950Z,95502.20
2019-01-28T05:52:04.081Z,95506.44
2019-01-28T05:54:35.961Z,95506.48
2019-01-28T05:57:08.744Z,95502.30
2019-01-28T05:59:41.148Z,95496.05
2019-01-28T06:02:11.804Z,95497.73
2019-01-28T06:04:44.081Z,95499.16
2019-01-28T06:07:17.356Z,95493.12
2019-01-28T06:09:50.297Z,95490.52
2019-01-28T06:12:20.997Z,95501.32
2019-01-28T06:14:53.285Z,95499.70
2019-01-28T06:17:24.293Z,95496.96
2019-01-28T06:19:55.014Z,95499.02
2019-01-28T06:22:27.300Z,95496.67
2019-01-28T06:24:58.116Z,95508.12
2019-01-28T06:27:30.314Z,95495.69
2019-01-28T06:30:02.280Z,95502.26
2019-01-28T06:32:34.283Z,95496.05
2019-01-28T06:35:05.284Z,95507.48
2019-01-28T06:37:36.081Z,95514.92
2019-01-28T06:40:10.675Z,95517.80
2019-01-28T06:42:42.728Z,95524.48
2019-01-28T06:45:16.558Z,95514.78
2019-01-28T06:47:49.277Z,95524.19
2019-01-28T06:50:22.693Z,95540.02
2019-01-28T06:52:55.289Z,95532.84
2019-01-28T06:55:27.011Z,95548.09
2019-01-28T06:57:59.321Z,95528.43
2019-01-28T07:00:31.623Z,95531.27
2019-01-28T07:03:04.265Z,95538.97
2019-01-28T07:05:35.202Z,95534.82
2019-01-28T07:08:06.615Z,95532.64
2019-01-28T07:10:38.950Z,95533.83
2019-01-28T07:13:11.288Z,95528.10
2019-01-28T07:15:41.999Z,95534.67
2019-01-28T07:18:14.282Z,95534.67
2019-01-28T07:20:45.040Z,95532.09
2019-01-28T07:23:17.282Z,95542.48
2019-01-28T07:25:48.288Z,95529.61
2019-01-28T07:28:19.287Z,95537.95
2019-01-28T07:30:49.873Z,95538.39
2019-01-28T07:33:22.339Z,95532.84
2019-01-28T07:35:53.289Z,95541.95
2019-01-28T07:38:24.283Z,95545.77
2019-01-28T07:40:55.412Z,95545.23
2019-01-28T07:43:27.701Z,95548.19
2019-01-28T07:45:59.968Z,95548.19
2019-01-28T07:48:32.277Z,95538.70
2019-01-28T07:51:03.073Z,95543.03
2019-01-28T07:53:35.303Z,95540.92
2019-01-28T07:56:06.286Z,95539.45
2019-01-28T07:58:37.278Z,95534.64
2019-01-28T08:01:08.284Z,95534.64
2019-01-28T08:03:39.423Z,95534.14
2019-01-28T08:06:11.923Z,95531.09
2019-01-28T08:08:44.679Z,95531.09
2019-01-28T08:11:17.263Z,95527.08
2019-01-28T08:13:48.435Z,95519.25
2019-01-28T08:16:20.645Z,95509.63
2019-01-28T08:18:53.276Z,95509.63
2019-01-28T08:21:24.275Z,95516.77
2019-01-28T08:23:55.279Z,95504.67
2019-01-28T08:26:26.277Z,95509.44
2019-01-28T08:28:57.275Z,95514.44
2019-01-28T08:31:28.074Z,95516.19
2019-01-28T08:34:00.286Z,95517.98
2019-01-28T08:36:31.027Z,95505.66
2019-01-28T08:39:04.281Z,95519.20
2019-01-28T08:41:35.137Z,95519.20
2019-01-28T08:44:06.098Z,95503.09
2019-01-28T08:46:36.870Z,95499.09
2019-01-28T08:49:11.567Z,95493.62
2019-01-28T08:51:43.949Z,95497.30
2019-01-28T08:54:18.998Z,95488.14
2019-01-28T08:56:52.306Z,95493.42
2019-01-28T08:59:25.998Z,95498.56
2019-01-28T09:01:58.294Z,95499.90
2019-01-28T09:04:29.051Z,95497.59
2019-01-28T09:07:01.270Z,95495.61
2019-01-28T09:09:34.999Z,95495.04
2019-01-28T09:12:07.561Z,95487.22
2019-01-28T09:14:41.696Z,95487.84
2019-01-28T09:17:14.309Z,95499.22
2019-01-28T09:19:45.285Z,95494.25
2019-01-28T09:22:16.279Z,95492.51
2019-01-28T09:24:51.376Z,95497.41
2019-01-28T09:27:23.574Z,95507.20
2019-01-28T09:29:55.671Z,95507.20
2019-01-28T09:32:28.076Z,95506.69
2019-01-28T09:35:02.094Z,95500.75
2019-01-28T09:37:36.322Z,95493.18
2019-01-28T09:40:10.910Z,95492.20
2019-01-28T09:42:43.512Z,95497.47
2019-01-28T09:45:25.636Z,95507.16
2019-01-28T09:47:57.882Z,95507.16
2019-01-28T09:50:30.579Z,95504.21
2019-01-28T09:53:03.284Z,95513.70
2019-01-28T09:55:34.277Z,95513.91
2019-01-28T09:58:06.430Z,95510.38
2019-01-28T10:00:42.726Z,95507.55
2019-01-28T10:03:15.099Z,95507.55
2019-01-28T10:05:47.314Z,95512.18
2019-01-28T10:08:18.306Z,95509.22
2019-01-28T10:10:59.025Z,95509.22
2019-01-28T10:15:03.279Z,95521.59
2019-01-28T10:17:34.392Z,95506.23
2019-01-28T10:20:12.662Z,95500.09
2019-01-28T10:22:48.919Z,95500.09
2019-01-28T10:25:21.111Z,95493.09
2019-01-28T10:27:52.288Z,95521.06
2019-01-28T10:30:30.990Z,95504.45
2019-01-28T10:33:07.608Z,95508.64
2019-01-28T10:35:41.744Z,95500.48
2019-01-28T10:38:17.942Z,95495.23
2019-01-28T10:40:52.946Z,95500.62
2019-01-28T10:43:27.507Z,95506.57
2019-01-28T10:46:02.597Z,95513.14
2019-01-28T10:48:34.893Z,95509.39
2019-01-28T10:51:12.049Z,95499.93
2019-01-28T10:53:46.268Z,95505.18
2019-01-28T10:56:19.754Z,95519.59
2019-01-28T10:58:54.279Z,95494.13
2019-01-28T11:01:26.360Z,95485.06
2019-01-28T11:03:58.644Z,95496.60
2019-01-28T11:06:34.323Z,95499.56
2019-01-28T11:09:06.665Z,95498.61
2019-01-28T11:11:39.473Z,95508.84
2019-01-28T11:14:12.980Z,95508.37
2019-01-28T11:16:45.301Z,95497.20
2019-01-28T11:19:17.890Z,95493.88
2019-01-28T11:21:52.437Z,95500.72
2019-01-28T11:24:24.889Z,95500.72
2019-01-28T11:26:57.428Z,95489.70
2019-01-28T11:29:31.149Z,95502.41
2019-01-28T11:32:04.936Z,95502.41
2019-01-28T11:34:38.710Z,95506.55
2019-01-28T11:37:12.542Z,95499.22
2019-01-28T11:39:45.883Z,95499.19
2019-01-28T11:42:18.281Z,95502.53
2019-01-28T11:44:50.705Z,95517.86
2019-01-28T11:47:22.989Z,95490.27
2019-01-28T11:50:00.943Z,95492.98
2019-01-28T11:52:33.274Z,95489.23
2019-01-28T11:55:04.101Z,95484.30
2019-01-28T11:57:35.092Z,95485.45
2019-01-28T12:00:10.772Z,95474.94
2019-01-28T12:02:47.996Z,95498.14
2019-01-28T12:05:20.262Z,95498.32
2019-01-28T12:07:51.268Z,95474.33
2019-01-28T12:10:22.029Z,95489.16
2019-01-28T12:12:54.334Z,95487.97
2019-01-28T12:15:26.695Z,95519.81
2019-01-28T12:17:59.119Z,95489.67
2019-01-28T12:20:31.017Z,95490.77
2019-01-28T12:23:03.270Z,95490.58
2019-01-28T12:25:36.409Z,95490.34
2019-01-28T12:28:09.112Z,95478.47
2019-01-28T12:30:40.066Z,95488.41
2019-01-28T12:33:15.059Z,95482.53
2019-01-28T12:35:47.295Z,95482.95
2019-01-28T12:38:19.356Z,95475.72
2019-01-28T12:40:53.277Z,95472.45
2019-01-28T12:43:25.711Z,95464.59
2019-01-28T12:45:58.061Z,95478.48
2019-01-28T12:48:30.268Z,95467.97
2019-01-28T12:51:01.015Z,95475.47
2019-01-28T12:53:37.565Z,95470.17
2019-01-28T12:56:10.127Z,95492.14
2019-01-28T12:58:44.580Z,95488.27
2019-01-28T13:01:23.275Z,95480.69
2019-01-28T13:03:56.860Z,95471.70
2019-01-28T13:06:29.275Z,95458.20
2019-01-28T13:09:01.230Z,95454.17
2019-01-28T13:11:32.694Z,95454.17
2019-01-28T13:14:05.271Z,95460.66
2019-01-28T13:16:36.282Z,95469.22
2019-01-28T13:19:08.744Z,95466.78
2019-01-28T13:21:42.299Z,95466.78
2019-01-28T13:24:14.830Z,95470.11
2019-01-28T13:26:48.629Z,95459.66
2019-01-28T13:29:21.026Z,95462.73
2019-01-28T13:31:53.280Z,95464.42
2019-01-28T13:34:26.822Z,95465.70
2019-01-28T13:36:59.228Z,95473.97
2019-01-28T13:39:30.859Z,95491.95
2019-01-28T13:42:05.645Z,95471.34
2019-01-28T13:44:37.787Z,95470.20
2019-01-28T13:47:10.311Z,95471.23
2019-01-28T13:49:43.267Z,95486.21
2019-01-28T13:52:19.706Z,95463.72
2019-01-28T13:54:52.140Z,95483.71
2019-01-28T13:57:23.944Z,95486.23
2019-01-28T13:59:56.281Z,95491.09
2019-01-28T14:02:27.910Z,95480.70
2019-01-28T14:05:00.799Z,95484.95
2019-01-28T14:07:34.357Z,95492.84
2019-01-28T14:10:08.108Z,95480.23
2019-01-28T14:12:55.278Z,95492.70
2019-01-28T14:15:34.287Z,95493.20
2019-01-28T14:18:05.275Z,95492.06
2019-01-28T14:20:36.399Z,95493.65
2019-01-28T14:23:17.410Z,95478.08
2019-01-28T14:25:52.888Z,95493.80
2019-01-28T14:28:23.989Z,95493.80
2019-01-28T14:30:56.274Z,95485.23
2019-01-28T14:33:27.287Z,95495.80
2019-01-28T14:35:58.316Z,95489.02
2019-01-28T14:38:30.318Z,95489.14
2019-01-28T14:41:06.252Z,95476.21
2019-01-28T14:43:39.539Z,95476.21
2019-01-28T14:46:11.886Z,95497.08
2019-01-28T14:48:49.111Z,95497.08
2019-01-28T14:51:18.277Z,95489.14
2019-01-28T14:53:49.272Z,95479.67
2019-01-28T14:56:19.996Z,95500.77
2019-01-28T14:58:52.335Z,95509.74
2019-01-28T15:01:25.519Z,95495.77
2019-01-28T15:03:57.863Z,95492.57
2019-01-28T15:06:30.355Z,95491.58
2019-01-28T15:09:01.002Z,95495.59
2019-01-28T15:11:33.272Z,95488.70
2019-01-28T15:14:04.029Z,95492.51
2019-01-28T15:16:35.068Z,95502.05
2019-01-28T15:19:07.668Z,95495.45
2019-01-28T15:21:40.119Z,95489.31
2019-01-28T15:24:11.032Z,95492.14
2019-01-28T15:26:43.302Z,95494.47
2019-01-28T15:29:15.748Z,95489.52
2019-01-28T15:31:48.275Z,95488.88
2019-01-28T15:34:18.888Z,95479.91
2019-01-28T15:36:52.140Z,95489.56
2019-01-28T15:39:24.273Z,95488.81
2019-01-28T15:41:55.285Z,95491.26
2019-01-28T15:44:26.286Z,95493.02
2019-01-28T15:46:57.030Z,95490.84
2019-01-28T15:49:29.313Z,95485.02
2019-01-28T15:52:01.345Z,95493.20
2019-01-28T15:54:32.369Z,95490.66
2019-01-28T15:57:04.780Z,95493.44
2019-01-28T15:59:37.291Z,95493.44
2019-01-28T16:02:08.343Z,95493.95
2019-01-28T16:04:40.316Z,95499.23
2019-01-28T16:07:11.281Z,95491.59
2019-01-28T16:09:41.869Z,95490.31
2019-01-28T16:12:13.926Z,95487.47
2019-01-28T16:14:46.098Z,95494.89
2019-01-28T16:17:18.278Z,95492.96
2019-01-28T16:19:48.793Z,95493.85
2019-01-28T16:22:21.185Z,95499.95
2019-01-28T16:24:54.371Z,95512.66
2019-01-28T16:27:27.898Z,95509.44
2019-01-28T16:30:00.269Z,95509.44
2019-01-28T16:32:30.958Z,95512.50
2019-01-28T16:35:03.271Z,95519.91
2019-01-28T16:37:34.018Z,95511.52
2019-01-28T16:40:07.271Z,95507.36
2019-01-28T16:42:38.074Z,95506.75
2019-01-28T16:45:13.305Z,95511.23
2019-01-28T16:47:43.988Z,95509.44
2019-01-28T16:50:26.984Z,95519.91
2019-01-28T16:52:56.522Z,95513.50
2019-01-28T16:55:28.705Z,95513.50
2019-01-28T16:58:01.369Z,95515.84
2019-01-28T17:00:36.655Z,95521.94
2019-01-28T17:03:10.636Z,95518.11
2019-01-28T17:05:43.297Z,95510.52
2019-01-28T17:08:13.866Z,95515.77
2019-01-28T17:10:45.937Z,95515.77
2019-01-28T17:13:18.266Z,95520.66
2019-01-28T17:15:49.067Z,95527.22
2019-01-28T17:18:21.251Z,95525.09
2019-01-28T17:20:51.862Z,95530.01
2019-01-28T17:23:24.064Z,95530.01
2019-01-28T17:25:56.123Z,95528.25
2019-01-28T17:28:26.715Z,95529.81
2019-01-28T17:30:59.107Z,95527.89
2019-01-28T17:33:31.282Z,95528.98
2019-01-28T17:36:03.270Z,95533.39
2019-01-28T17:38:33.860Z,95543.93
2019-01-28T17:41:06.270Z,95538.26
2019-01-28T17:43:37.106Z,95547.92
2019-01-28T17:46:07.855Z,95541.63
2019-01-28T17:48:39.881Z,95541.63
2019-01-28T17:51:11.945Z,95548.52
2019-01-28T17:53:44.258Z,95551.05
2019-01-28T17:56:14.859Z,95557.20
2019-01-28T17:58:48.242Z,95551.32
2019-01-28T18:01:22.278Z,95547.05
2019-01-28T18:03:52.682Z,95553.39
2019-01-28T18:06:24.922Z,95566.67
2019-01-28T18:08:57.081Z,95562.36
2019-01-28T18:11:29.343Z,95562.97
2019-01-28T18:14:01.345Z,95572.18
2019-01-28T18:16:33.268Z,95569.91
2019-01-28T18:19:04.028Z,95572.50
2019-01-28T18:21:36.273Z,95574.23
2019-01-28T18:24:07.024Z,95575.27
2019-01-28T18:26:39.112Z,95584.09
2019-01-28T18:29:11.277Z,95588.05
2019-01-28T18:31:41.698Z,95591.00
2019-01-28T18:34:13.785Z,95578.73
2019-01-28T18:36:46.104Z,95592.61
2019-01-28T18:39:18.164Z,95598.15
2019-01-28T18:41:50.289Z,95589.05
2019-01-28T18:44:22.273Z,95596.56
2019-01-28T18:46:52.857Z,95599.22
2019-01-28T18:52:06.635Z,95608.65
2019-01-28T18:54:38.719Z,95613.86
2019-01-28T18:57:10.942Z,95616.53
2019-01-28T18:59:43.129Z,95615.89
2019-01-28T19:04:12.782Z,95631.36
2019-01-28T19:07:09.670Z,95625.11
2019-01-28T19:09:46.672Z,95640.75
2019-01-28T19:12:27.350Z,95640.75
2019-01-28T19:15:11.902Z,95641.64
2019-01-28T19:18:08.645Z,95645.86
2019-01-28T19:20:46.080Z,95650.22
2019-01-28T19:23:18.284Z,95650.08
2019-01-28T19:25:48.865Z,95657.98
2019-01-28T19:28:20.947Z,95649.98
2019-01-28T19:30:52.944Z,95662.08
2019-01-28T19:33:24.942Z,95657.32
2019-01-28T19:35:56.940Z,95669.61
2019-01-28T19:38:29.401Z,95671.09
2019-01-28T19:41:01.312Z,95671.09
2019-01-28T19:43:33.275Z,95674.75
2019-01-28T19:46:03.857Z,95685.05
2019-01-28T19:48:36.070Z,95686.94
2019-01-28T19:51:15.651Z,95694.55
2019-01-28T19:53:43.274Z,95698.45
2019-01-28T19:56:13.846Z,95698.19
2019-01-28T19:58:46.090Z,95706.28
2019-01-28T20:01:18.341Z,95711.41
2019-01-28T20:03:50.323Z,95718.68
2019-01-28T20:06:22.276Z,95724.92
2019-01-28T20:08:52.800Z,95723.09
2019-01-28T20:11:24.946Z,95724.50
2019-01-28T20:13:56.929Z,95726.88
2019-01-28T20:16:28.943Z,95724.92
2019-01-28T20:19:00.938Z,95730.33
2019-01-28T20:21:33.047Z,95730.16
2019-01-28T20:24:05.655Z,95740.92
2019-01-28T20:26:37.897Z,95740.92
2019-01-28T20:29:09.954Z,95745.95
2019-01-28T20:31:42.261Z,95749.13
2019-01-28T20:34:13.011Z,95755.52
2019-01-28T20:36:45.074Z,95764.30
2019-01-28T20:39:17.313Z,95766.18
2019-01-28T20:41:49.657Z,95767.46
2019-01-28T20:44:21.940Z,95771.56
2019-01-28T20:46:54.117Z,95779.64
2019-01-28T20:49:25.050Z,95779.45
2019-01-28T20:51:57.284Z,95783.80
2019-01-28T20:54:31.299Z,95784.05
2019-01-28T20:57:03.323Z,95788.95
2019-01-28T20:59:35.347Z,95797.81
2019-01-28T21:02:07.660Z,95802.25
2019-01-28T21:04:39.931Z,95802.25
2019-01-28T21:07:12.293Z,95805.57
2019-01-28T21:09:44.425Z,95809.75
2019-01-28T21:12:16.758Z,95816.27
2019-01-28T21:14:49.292Z,95814.92
2019-01-28T21:17:20.122Z,95816.73
2019-01-28T21:19:51.338Z,95828.94
2019-01-28T21:22:23.543Z,95834.67
2019-01-28T21:24:55.950Z,95836.28
2019-01-28T21:27:30.643Z,95840.88
2019-01-28T21:30:03.347Z,95846.24
2019-01-28T21:32:34.109Z,95851.37
2019-01-28T21:35:08.494Z,95858.20
2019-01-28T21:37:48.282Z,95859.66
2019-01-28T21:40:18.854Z,95866.26
2019-01-28T21:42:50.933Z,95876.52
2019-01-28T21:45:23.110Z,95875.41
2019-01-28T21:47:55.539Z,95876.33
2019-01-28T21:50:28.855Z,95876.82
2019-01-28T21:53:01.268Z,95876.94
2019-01-28T21:55:32.047Z,95879.51
2019-01-28T21:58:04.255Z,95882.90
2019-01-28T22:00:35.012Z,95888.42
2019-01-28T22:03:07.328Z,95888.42
2019-01-28T22:05:39.631Z,95889.80
2019-01-28T22:08:11.778Z,95889.80
2019-01-28T22:10:43.940Z,95894.50
2019-01-28T22:13:15.927Z,95898.31
2019-01-28T22:15:48.029Z,95898.45
2019-01-28T22:18:20.252Z,95909.85
2019-01-28T22:20:50.868Z,95910.61
2019-01-28T22:23:23.272Z,95905.23
2019-01-28T22:25:54.027Z,95910.99
2019-01-28T22:28:26.310Z,95914.09
2019-01-28T22:30:58.644Z,95916.63
2019-01-28T22:33:30.764Z,95916.63
2019-01-28T22:36:03.131Z,95923.66
2019-01-28T22:38:35.332Z,95924.02
2019-01-28T22:41:09.539Z,95915.81
2019-01-28T22:43:41.834Z,95926.25
2019-01-28T22:46:14.274Z,95924.77
2019-01-28T22:48:44.853Z,95936.88
2019-01-28T22:51:16.940Z,95935.83
2019-01-28T22:53:49.126Z,95938.29
2019-01-28T22:56:19.867Z,95945.89
2019-01-28T22:58:52.036Z,95945.80
2019-01-28T23:01:34.696Z,95950.86
2019-01-28T23:04:08.204Z,95960.51
2019-01-28T23:06:40.672Z,95956.56
2019-01-28T23:09:13.489Z,95967.66
2019-01-28T23:11:45.956Z,95974.67
2019-01-28T23:14:18.337Z,95974.67
2019-01-28T23:16:51.776Z,95983.21
2019-01-28T23:19:24.274Z,95988.25
2019-01-28T23:21:55.275Z,95994.05
2019-01-28T23:24:26.270Z,96006.81
2019-01-28T23:26:56.987Z,96015.19
2019-01-28T23:29:29.762Z,96021.84
2019-01-28T23:32:02.445Z,96027.61
2019-01-28T23:34:35.271Z,96036.06
2019-01-28T23:37:07.643Z,96036.06
2019-01-28T23:39:40.132Z,96045.01
2019-01-28T23:42:12.353Z,96046.78
2019-01-28T23:47:28.681Z,96048.34
2019-01-28T23:50:01.285Z,96043.02
2019-01-28T23:52:32.284Z,96060.45
2019-01-28T23:55:03.047Z,96061.55
2019-01-28T23:57:35.324Z,96066.23
